Time;durP1;ratioP1;P1;durP2;ratioP2;P2;SDS_P1;SDS_P2;PMS_P1;PMS_P2;Temp;Humidity;BMP_temperature;BMP_pressure;BME280_temperature;BME280_humidity;BME280_pressure;Samples;Min_cycle;Max_cycle;Signal;HPM_P1;HPM_P2
2021/05/28 00:00:07;;;;;;;0.60;0.60;;;;;;;10.17;74.92;97358.94;29395;224;63009;-67
2021/05/28 00:00:39;;;;;;;0.57;0.57;;;;;;;10.13;75.05;97360.59;29394;241;64005;-64
2021/05/28 00:01:10;;;;;;;0.60;0.60;;;;;;;10.13;75.45;97363.31;29394;227;64013;-66
2021/05/28 00:01:43;;;;;;;0.60;0.60;;;;;;;10.12;75.55;97357.06;29395;213;63005;-69
2021/05/28 00:02:14;;;;;;;0.55;0.55;;;;;;;10.11;75.60;97360.88;29395;204;63009;-70
2021/05/28 00:02:46;;;;;;;0.60;0.60;;;;;;;10.08;75.59;97362.22;29395;243;63005;-67
2021/05/28 00:03:17;;;;;;;0.60;0.60;;;;;;;10.08;75.39;97361.44;29395;233;63014;-65
2021/05/28 00:03:48;;;;;;;0.60;0.60;;;;;;;10.06;76.00;97359.00;29395;266;63004;-70
2021/05/28 00:04:20;;;;;;;0.60;0.60;;;;;;;10.03;77.45;97367.72;29395;223;63009;-68
2021/05/28 00:04:51;;;;;;;0.60;0.60;;;;;;;10.00;77.10;97365.56;29395;256;63004;-67
2021/05/28 00:05:22;;;;;;;0.52;0.52;;;;;;;9.98;76.78;97356.06;29394;227;64013;-67
2021/05/28 00:05:53;;;;;;;0.68;0.68;;;;;;;9.97;76.76;97366.09;29395;234;63004;-70
2021/05/28 00:06:24;;;;;;;0.60;0.60;;;;;;;9.96;77.24;97364.47;29395;197;63008;-68
2021/05/28 00:06:56;;;;;;;0.50;0.50;;;;;;;9.95;77.26;97365.56;29395;204;63004;-69
2021/05/28 00:07:27;;;;;;;0.55;0.55;;;;;;;9.94;78.32;97361.22;29395;243;63009;-67
2021/05/28 00:07:59;;;;;;;0.60;0.60;;;;;;;9.90;78.46;97360.16;29395;218;63001;-70
2021/05/28 00:08:30;;;;;;;0.60;0.60;;;;;;;9.89;77.60;97363.97;29395;207;63009;-69
2021/05/28 00:09:02;;;;;;;0.60;0.60;;;;;;;9.89;78.58;97368.56;29395;249;63005;-69
2021/05/28 00:09:34;;;;;;;0.68;0.68;;;;;;;9.87;78.65;97360.72;29395;197;63009;-68
2021/05/28 00:10:07;;;;;;;0.60;0.60;;;;;;;9.85;79.41;97360.16;29395;266;63005;-61
2021/05/28 00:10:39;;;;;;;0.50;0.50;;;;;;;9.83;79.37;97365.06;29394;214;64013;-67
2021/05/28 00:11:10;;;;;;;0.55;0.55;;;;;;;9.82;79.41;97360.72;29395;254;63005;-66
2021/05/28 00:11:41;;;;;;;0.90;0.90;;;;;;;9.81;79.35;97361.81;29395;267;63009;-66
2021/05/28 00:12:12;;;;;;;0.60;0.60;;;;;;;9.82;79.24;97363.44;29394;230;64009;-69
2021/05/28 00:12:44;;;;;;;0.60;0.60;;;;;;;9.80;79.36;97360.19;29395;334;63009;-67
2021/05/28 00:13:15;;;;;;;0.60;0.60;;;;;;;9.82;78.96;97363.44;29395;246;63004;-65
2021/05/28 00:13:46;;;;;;;0.60;0.60;;;;;;;9.86;79.08;97361.78;29395;202;63013;-68
2021/05/28 00:14:18;;;;;;;0.60;0.60;;;;;;;9.88;78.99;97362.34;29395;198;63000;-62
2021/05/28 00:14:49;;;;;;;0.60;0.60;;;;;;;9.91;78.36;97359.06;29395;216;63009;-68
2021/05/28 00:15:20;;;;;;;0.50;0.50;;;;;;;9.92;78.46;97363.41;29395;222;63008;-60
2021/05/28 00:15:54;;;;;;;0.60;0.60;;;;;;;10.02;78.31;97362.56;29395;222;63009;-62
2021/05/28 00:16:25;;;;;;;0.60;0.60;;;;;;;10.07;78.44;97360.62;29395;211;63005;-68
2021/05/28 00:16:56;;;;;;;0.60;0.60;;;;;;;10.06;78.24;97361.69;29395;204;63009;-64
2021/05/28 00:17:28;;;;;;;0.50;0.50;;;;;;;10.08;78.02;97356.00;29394;225;64009;-65
2021/05/28 00:18:00;;;;;;;0.50;0.50;;;;;;;10.10;78.01;97359.25;29395;205;63009;-68
2021/05/28 00:18:31;;;;;;;0.60;0.60;;;;;;;10.06;79.56;97356.28;29395;237;63011;-70
2021/05/28 00:19:04;;;;;;;0.60;0.60;;;;;;;10.02;78.98;97352.53;29395;214;63009;-62
2021/05/28 00:19:35;;;;;;;0.50;0.50;;;;;;;10.02;78.90;97354.44;29395;199;63004;-67
2021/05/28 00:20:10;;;;;;;0.60;0.60;;;;;;;10.00;78.83;97354.69;29395;224;63009;-69
2021/05/28 00:20:42;;;;;;;0.57;0.57;;;;;;;9.99;79.05;97360.41;29395;210;63004;-66
2021/05/28 00:21:13;;;;;;;0.60;0.60;;;;;;;9.95;78.57;97357.44;29395;228;63022;-68
2021/05/28 00:21:44;;;;;;;0.52;0.52;;;;;;;9.94;78.72;97363.13;29394;379;64004;-67
2021/05/28 00:22:15;;;;;;;0.60;0.60;;;;;;;9.94;78.70;97360.41;29395;204;63009;-70
2021/05/28 00:22:46;;;;;;;0.57;0.57;;;;;;;9.98;79.00;97362.31;29394;215;64009;-62
2021/05/28 00:23:17;;;;;;;0.60;0.60;;;;;;;10.01;78.99;97360.94;29395;207;63009;-59
2021/05/28 00:23:49;;;;;;;0.52;0.52;;;;;;;10.06;78.72;97358.19;29395;313;63005;-62
2021/05/28 00:24:20;;;;;;;0.60;0.60;;;;;;;10.11;78.59;97360.88;29395;317;63009;-67
2021/05/28 00:24:52;;;;;;;0.60;0.60;;;;;;;10.12;78.58;97367.09;29395;339;63005;-62
2021/05/28 00:25:24;;;;;;;0.60;0.60;;;;;;;10.09;78.72;97357.63;29395;202;63009;-66
2021/05/28 00:25:55;;;;;;;0.60;0.60;;;;;;;10.13;78.91;97363.31;29395;257;63005;-58
2021/05/28 00:26:26;;;;;;;0.50;0.50;;;;;;;10.18;78.59;97355.97;29395;228;63009;-62
2021/05/28 00:26:57;;;;;;;0.60;0.60;;;;;;;10.19;78.70;97360.31;29395;218;63004;-67
2021/05/28 00:27:30;;;;;;;0.60;0.60;;;;;;;10.15;78.74;97363.84;29394;198;64013;-71
2021/05/28 00:28:01;;;;;;;0.60;0.60;;;;;;;10.08;79.03;97367.66;29395;213;63004;-65
2021/05/28 00:28:32;;;;;;;0.60;0.60;;;;;;;10.04;78.51;97357.69;29395;280;63009;-62
2021/05/28 00:29:04;;;;;;;0.70;0.70;;;;;;;10.05;79.06;97370.94;29395;209;63004;-58
2021/05/28 00:29:36;;;;;;;0.77;0.77;;;;;;;10.08;79.17;97367.66;29395;210;63008;-65
2021/05/28 00:30:07;;;;;;;0.60;0.60;;;;;;;10.08;78.81;97364.94;29395;215;63005;-70
2021/05/28 00:30:39;;;;;;;1.08;1.08;;;;;;;10.07;78.91;97360.62;29395;274;63009;-68
2021/05/28 00:31:10;;;;;;;0.60;0.60;;;;;;;10.03;78.82;97365.00;29395;203;63012;-68
2021/05/28 00:31:41;;;;;;;0.60;0.60;;;;;;;10.03;78.89;97359.56;29395;270;63023;-61
2021/05/28 00:32:12;;;;;;;0.60;0.60;;;;;;;10.02;79.55;97368.78;29395;211;63005;-68
2021/05/28 00:32:43;;;;;;;0.52;0.52;;;;;;;10.01;79.49;97359.03;29394;219;64013;-69
2021/05/28 00:33:14;;;;;;;0.60;0.60;;;;;;;9.97;79.87;97365.28;29395;220;63004;-70
2021/05/28 00:33:46;;;;;;;0.60;0.60;;;;;;;9.92;81.14;97368.81;29395;219;63009;-70
2021/05/28 00:34:21;;;;;;;0.60;0.60;;;;;;;9.89;80.93;97368.56;29395;217;63004;-70
2021/05/28 00:34:52;;;;;;;0.60;0.60;;;;;;;9.86;80.37;97364.50;29395;219;63004;-70
2021/05/28 00:35:23;;;;;;;0.60;0.60;;;;;;;9.85;80.42;97371.00;29395;221;63004;-69
2021/05/28 00:35:57;;;;;;;0.50;0.50;;;;;;;9.85;80.33;97368.31;29395;265;63008;-69
2021/05/28 00:36:29;;;;;;;0.50;0.50;;;;;;;9.88;80.08;97367.75;29395;260;63004;-63
2021/05/28 00:37:00;;;;;;;0.50;0.50;;;;;;;9.92;79.97;97371.53;29395;223;63008;-61
2021/05/28 00:37:35;;;;;;;0.60;0.60;;;;;;;9.99;79.92;97371.25;29395;237;63005;-61
2021/05/28 00:38:07;;;;;;;0.60;0.60;;;;;;;9.99;80.12;97369.34;29394;227;64006;-69
2021/05/28 00:38:38;;;;;;;0.50;0.50;;;;;;;9.97;79.90;97371.53;29395;212;63005;-60
2021/05/28 00:39:09;;;;;;;0.50;0.50;;;;;;;10.01;79.87;97367.16;29395;197;63009;-66
2021/05/28 00:39:47;;;;;;;0.55;0.55;;;;;;;10.03;80.06;97369.59;29395;268;63005;-63
2021/05/28 00:40:19;;;;;;;0.60;0.60;;;;;;;10.05;79.56;97373.63;29395;265;63009;-63
2021/05/28 00:40:56;;;;;;;0.60;0.60;;;;;;;10.05;80.30;97379.06;29395;245;63004;-67
2021/05/28 00:41:28;;;;;;;0.55;0.55;;;;;;;10.04;79.67;97377.47;29395;299;63009;-61
2021/05/28 00:41:59;;;;;;;0.50;0.50;;;;;;;10.13;79.46;97374.16;29394;243;64009;-63
2021/05/28 00:42:30;;;;;;;0.50;0.50;;;;;;;10.18;79.43;97371.41;29395;248;63009;-60
2021/05/28 00:43:02;;;;;;;0.60;0.60;;;;;;;10.27;78.68;97380.63;29395;226;63004;-68
2021/05/28 00:43:33;;;;;;;1.02;1.02;;;;;;;10.30;78.69;97377.38;29395;198;63008;-59
2021/05/28 00:44:06;;;;;;;0.60;0.60;;;;;;;10.30;78.21;97372.75;29394;214;64009;-65
2021/05/28 00:44:40;;;;;;;0.60;0.60;;;;;;;10.25;78.48;97371.97;29395;208;63009;-65
2021/05/28 00:45:13;;;;;;;0.60;0.60;;;;;;;10.18;78.76;97374.13;29395;197;63005;-60
2021/05/28 00:45:44;;;;;;;0.60;0.60;;;;;;;10.17;78.83;97372.50;29395;197;63027;-59
2021/05/28 00:46:16;;;;;;;0.60;0.60;;;;;;;10.21;78.85;97371.72;29395;208;63005;-61
2021/05/28 00:46:47;;;;;;;0.60;0.60;;;;;;;10.24;78.38;97375.78;29395;206;63009;-63
2021/05/28 00:47:19;;;;;;;0.60;0.60;;;;;;;10.23;78.55;97374.16;29395;389;63005;-67
2021/05/28 00:47:52;;;;;;;0.57;0.57;;;;;;;10.21;78.48;97373.63;29394;202;64013;-63
2021/05/28 00:48:24;;;;;;;0.60;0.60;;;;;;;10.16;78.92;97377.13;29395;214;63004;-62
2021/05/28 00:48:55;;;;;;;0.60;0.60;;;;;;;10.11;78.65;97371.72;29395;222;63009;-62
2021/05/28 00:49:27;;;;;;;0.60;0.60;;;;;;;10.11;79.04;97376.34;29395;210;63004;-64
2021/05/28 00:49:58;;;;;;;0.60;0.60;;;;;;;10.06;79.36;97372.53;29394;321;64013;-68
2021/05/28 00:50:30;;;;;;;0.60;0.60;;;;;;;10.03;79.32;97375.03;29395;338;63004;-60
2021/05/28 00:51:02;;;;;;;0.60;0.60;;;;;;;10.02;78.91;97368.78;29395;197;63008;-63
2021/05/28 00:51:33;;;;;;;0.60;0.60;;;;;;;10.06;79.33;97377.97;29395;215;63005;-65
2021/05/28 00:52:05;;;;;;;0.60;0.60;;;;;;;10.03;79.34;97367.72;29395;214;63020;-61
2021/05/28 00:52:36;;;;;;;0.60;0.60;;;;;;;9.99;79.36;97369.34;29395;283;63005;-65
2021/05/28 00:53:08;;;;;;;0.60;0.60;;;;;;;9.95;79.53;97373.69;29395;267;63009;-68
2021/05/28 00:53:39;;;;;;;0.60;0.60;;;;;;;9.90;79.96;97371.00;29395;206;63005;-71
2021/05/28 00:54:11;;;;;;;0.60;0.60;;;;;;;9.84;80.35;97369.38;29395;202;63014;-68
2021/05/28 00:54:42;;;;;;;0.60;0.60;;;;;;;9.81;80.27;97378.06;29395;203;63005;-61
2021/05/28 00:55:14;;;;;;;0.60;0.60;;;;;;;9.78;80.09;97373.19;29394;300;64013;-62
2021/05/28 00:55:46;;;;;;;0.60;0.60;;;;;;;9.75;80.14;97368.31;29395;232;63004;-68
2021/05/28 00:56:18;;;;;;;0.60;0.60;;;;;;;9.73;80.26;97371.31;29394;203;64013;-71
2021/05/28 00:56:50;;;;;;;0.60;0.60;;;;;;;9.71;80.61;97367.25;29395;222;63004;-69
2021/05/28 00:57:23;;;;;;;0.60;0.60;;;;;;;9.70;80.39;97360.25;29395;274;63009;-69
2021/05/28 00:57:56;;;;;;;0.60;0.60;;;;;;;9.70;80.33;97369.16;29395;215;63004;-66
2021/05/28 00:58:28;;;;;;;0.60;0.60;;;;;;;9.75;80.21;97374.56;29395;229;63008;-59
2021/05/28 00:59:01;;;;;;;0.55;0.55;;;;;;;9.83;79.55;97373.19;29395;204;63010;-60
2021/05/28 00:59:32;;;;;;;0.60;0.60;;;;;;;9.89;79.21;97374.78;29395;219;63009;-65
2021/05/28 01:00:07;;;;;;;0.60;0.60;;;;;;;9.92;79.19;97378.84;29395;225;63005;-64
2021/05/28 01:00:38;;;;;;;0.60;0.60;;;;;;;9.92;78.74;97374.25;29395;211;63009;-66
2021/05/28 01:01:09;;;;;;;0.60;0.60;;;;;;;9.90;78.61;97373.72;29395;308;63005;-68
2021/05/28 01:01:40;;;;;;;0.60;0.60;;;;;;;9.88;79.12;97383.19;29394;225;64013;-70
2021/05/28 01:02:11;;;;;;;0.50;0.50;;;;;;;9.83;79.30;97375.09;29394;280;64009;-68
2021/05/28 01:02:42;;;;;;;0.60;0.60;;;;;;;9.78;79.39;97372.37;29395;204;63009;-71
2021/05/28 01:03:14;;;;;;;0.60;0.60;;;;;;;9.74;79.48;97372.94;29395;224;63005;-68
2021/05/28 01:03:45;;;;;;;0.50;0.50;;;;;;;9.74;79.61;97378.34;29395;237;63009;-65
2021/05/28 01:04:16;;;;;;;0.60;0.60;;;;;;;9.74;79.59;97366.69;29395;226;63004;-70
2021/05/28 01:04:48;;;;;;;0.60;0.60;;;;;;;9.73;79.31;97370.50;29395;212;63009;-71
2021/05/28 01:05:20;;;;;;;0.60;0.60;;;;;;;9.70;79.47;97368.38;29395;304;63004;-68
2021/05/28 01:05:52;;;;;;;0.60;0.60;;;;;;;9.68;79.38;97374.06;29395;237;63008;-69
2021/05/28 01:06:24;;;;;;;0.60;0.60;;;;;;;9.68;79.49;97375.97;29395;208;63004;-68
2021/05/28 01:06:56;;;;;;;0.60;0.60;;;;;;;9.66;79.37;97370.00;29395;255;63021;-70
2021/05/28 01:07:27;;;;;;;0.50;0.50;;;;;;;9.63;79.66;97371.37;29394;211;64009;-68
2021/05/28 01:07:58;;;;;;;0.50;0.50;;;;;;;9.62;79.40;97374.34;29395;283;63009;-71
2021/05/28 01:08:30;;;;;;;0.60;0.60;;;;;;;9.61;79.80;97376.25;29395;232;63000;-63
2021/05/28 01:09:03;;;;;;;0.60;0.60;;;;;;;9.62;79.59;97375.16;29394;212;64009;-66
2021/05/28 01:09:34;;;;;;;0.50;0.50;;;;;;;9.65;79.62;97379.22;29395;203;63005;-64
2021/05/28 01:10:06;;;;;;;0.60;0.60;;;;;;;9.69;79.28;97374.88;29395;208;63009;-63
2021/05/28 01:10:37;;;;;;;0.50;0.50;;;;;;;9.72;79.17;97375.09;29395;220;63005;-70
2021/05/28 01:11:08;;;;;;;0.60;0.60;;;;;;;9.72;78.70;97374.28;29395;215;63009;-69
2021/05/28 01:11:39;;;;;;;0.60;0.60;;;;;;;9.70;78.85;97374.56;29395;251;63004;-70
2021/05/28 01:12:11;;;;;;;0.60;0.60;;;;;;;9.70;78.99;97371.06;29394;225;64013;-65
2021/05/28 01:12:43;;;;;;;0.50;0.50;;;;;;;9.69;79.21;97377.59;29395;258;63004;-65
2021/05/28 01:13:15;;;;;;;0.50;0.50;;;;;;;9.68;78.89;97379.47;29395;258;63009;-64
2021/05/28 01:13:46;;;;;;;0.60;0.60;;;;;;;9.68;79.19;97374.06;29395;223;63004;-70
2021/05/28 01:14:19;;;;;;;0.60;0.60;;;;;;;9.66;79.58;97380.84;29394;203;64014;-68
2021/05/28 01:14:51;;;;;;;0.50;0.50;;;;;;;9.62;79.47;97374.34;29394;238;64009;-68
2021/05/28 01:15:22;;;;;;;0.60;0.60;;;;;;;9.60;79.46;97376.50;29395;197;63009;-69
2021/05/28 01:15:53;;;;;;;0.60;0.60;;;;;;;9.59;79.88;97374.88;29395;258;63005;-69
2021/05/28 01:16:24;;;;;;;0.60;0.60;;;;;;;9.58;79.59;97373.25;29395;220;63009;-65
2021/05/28 01:16:55;;;;;;;0.60;0.60;;;;;;;9.59;79.73;97380.31;29395;219;63005;-68
2021/05/28 01:17:27;;;;;;;0.60;0.60;;;;;;;9.61;79.71;97378.13;29395;253;63009;-62
2021/05/28 01:17:59;;;;;;;0.60;0.60;;;;;;;9.66;79.05;97370.00;29395;239;63000;-69
2021/05/28 01:18:31;;;;;;;0.60;0.60;;;;;;;9.68;78.61;97375.97;29395;209;63009;-66
2021/05/28 01:19:03;;;;;;;0.60;0.60;;;;;;;9.69;78.80;97381.09;29394;198;64009;-64
2021/05/28 01:19:34;;;;;;;0.50;0.50;;;;;;;9.69;78.85;97385.72;29395;225;63009;-67
2021/05/28 01:20:08;;;;;;;0.60;0.60;;;;;;;9.69;79.00;97375.69;29395;375;63004;-70
2021/05/28 01:20:39;;;;;;;0.60;0.60;;;;;;;9.67;78.90;97377.84;29395;226;63009;-68
2021/05/28 01:21:11;;;;;;;0.60;0.60;;;;;;;9.66;79.01;97375.41;29394;267;64004;-70
2021/05/28 01:21:45;;;;;;;0.60;0.60;;;;;;;9.65;78.89;97374.59;29395;260;63009;-67
2021/05/28 01:22:19;;;;;;;0.60;0.60;;;;;;;9.65;79.09;97381.94;29395;221;63005;-68
2021/05/28 01:22:52;;;;;;;0.50;0.50;;;;;;;9.64;79.17;97377.59;29394;211;64014;-66
2021/05/28 01:23:24;;;;;;;0.60;0.60;;;;;;;9.65;78.98;97379.22;29395;234;63011;-66
2021/05/28 01:23:56;;;;;;;0.60;0.60;;;;;;;9.66;79.29;97380.84;29394;209;64013;-66
2021/05/28 01:24:27;;;;;;;0.60;0.60;;;;;;;9.65;79.33;97379.22;29394;235;64009;-67
2021/05/28 01:25:00;;;;;;;0.50;0.50;;;;;;;9.64;78.99;97377.59;29394;282;64013;-68
2021/05/28 01:25:32;;;;;;;0.50;0.50;;;;;;;9.62;79.09;97385.19;29395;242;63004;-68
2021/05/28 01:26:07;;;;;;;0.52;0.52;;;;;;;9.62;78.95;97377.06;29395;196;63009;-61
2021/05/28 01:26:39;;;;;;;0.60;0.60;;;;;;;9.61;79.17;97376.25;29395;204;63004;-69
2021/05/28 01:27:11;;;;;;;0.60;0.60;;;;;;;9.60;78.96;97376.50;29395;250;63009;-69
2021/05/28 01:27:42;;;;;;;0.60;0.60;;;;;;;9.58;79.19;97373.25;29395;260;63004;-69
2021/05/28 01:28:14;;;;;;;0.50;0.50;;;;;;;9.57;79.28;97377.06;29395;198;63008;-70
2021/05/28 01:28:46;;;;;;;0.60;0.60;;;;;;;9.56;79.34;97378.16;29395;285;63004;-69
2021/05/28 01:29:17;;;;;;;0.50;0.50;;;;;;;9.55;79.68;97385.47;29395;293;63009;-69
2021/05/28 01:29:49;;;;;;;0.60;0.60;;;;;;;9.54;79.47;97383.84;29394;207;64009;-66
2021/05/28 01:30:24;;;;;;;0.60;0.60;;;;;;;9.55;79.47;97390.06;29395;259;63009;-66
2021/05/28 01:30:55;;;;;;;0.57;0.57;;;;;;;9.54;79.27;97383.03;29395;210;63005;-68
2021/05/28 01:31:26;;;;;;;0.60;0.60;;;;;;;9.54;79.28;97383.84;29395;210;63009;-67
2021/05/28 01:31:57;;;;;;;0.50;0.50;;;;;;;9.54;79.26;97383.03;29395;223;63005;-69
2021/05/28 01:32:28;;;;;;;0.50;0.50;;;;;;;9.55;79.22;97390.06;29395;209;63009;-68
2021/05/28 01:33:00;;;;;;;0.60;0.60;;;;;;;9.54;79.38;97383.84;29396;232;63004;-68
2021/05/28 01:33:32;;;;;;;0.60;0.60;;;;;;;9.55;79.12;97387.34;29396;270;63009;-69
2021/05/28 01:34:04;;;;;;;0.60;0.60;;;;;;;9.55;79.29;97379.22;29395;222;64009;-68
2021/05/28 01:34:35;;;;;;;0.60;0.60;;;;;;;9.53;79.69;97384.09;29396;227;63009;-61
2021/05/28 01:35:08;;;;;;;0.60;0.60;;;;;;;9.52;80.01;97379.78;29396;313;63004;-69
2021/05/28 01:35:39;;;;;;;0.60;0.60;;;;;;;9.51;79.93;97386.28;29396;239;63008;-70
2021/05/28 01:36:11;;;;;;;0.60;0.60;;;;;;;9.50;80.00;97381.94;29396;204;63005;-61
2021/05/28 01:36:42;;;;;;;0.60;0.60;;;;;;;9.51;79.62;97383.56;29396;236;63009;-68
2021/05/28 01:37:14;;;;;;;0.60;0.60;;;;;;;9.51;80.01;97386.28;29395;202;64009;-68
2021/05/28 01:37:46;;;;;;;0.60;0.60;;;;;;;9.51;79.68;97388.97;29396;318;63009;-68
2021/05/28 01:38:20;;;;;;;0.50;0.50;;;;;;;9.49;80.13;97380.31;29396;275;63005;-68
2021/05/28 01:38:51;;;;;;;0.60;0.60;;;;;;;9.49;79.63;97391.16;29396;202;63009;-69
2021/05/28 01:39:22;;;;;;;0.50;0.50;;;;;;;9.49;79.82;97385.75;29396;237;63005;-69
2021/05/28 01:39:54;;;;;;;0.60;0.60;;;;;;;9.49;79.87;97393.87;29396;207;63005;-68
2021/05/28 01:40:25;;;;;;;0.60;0.60;;;;;;;9.49;80.10;97385.75;29396;197;63004;-68
2021/05/28 01:40:57;;;;;;;0.50;0.50;;;;;;;9.49;80.08;97385.75;29395;353;64013;-69
2021/05/28 01:41:30;;;;;;;0.50;0.50;;;;;;;9.49;79.98;97380.31;29396;219;63004;-69
2021/05/28 01:42:01;;;;;;;0.55;0.55;;;;;;;9.49;79.90;97380.31;29396;224;63009;-67
2021/05/28 01:42:32;;;;;;;0.60;0.60;;;;;;;9.49;80.28;97388.44;29396;309;63004;-71
2021/05/28 01:43:03;;;;;;;0.60;0.60;;;;;;;9.49;79.81;97383.03;29396;293;63008;-68
2021/05/28 01:43:35;;;;;;;0.60;0.60;;;;;;;9.48;80.12;97384.94;29396;259;63008;-67
2021/05/28 01:44:11;;;;;;;0.60;0.60;;;;;;;9.49;79.87;97369.47;29396;220;63009;-68
2021/05/28 01:44:44;;;;;;;0.60;0.60;;;;;;;9.49;79.78;97380.31;29396;245;63005;-66
2021/05/28 01:45:17;;;;;;;0.60;0.60;;;;;;;9.50;79.86;97381.94;29396;216;63009;-68
2021/05/28 01:45:48;;;;;;;0.52;0.52;;;;;;;9.49;79.79;97383.03;29396;207;63005;-70
2021/05/28 01:46:19;;;;;;;0.60;0.60;;;;;;;9.49;79.71;97380.31;29395;376;64013;-69
2021/05/28 01:46:50;;;;;;;0.50;0.50;;;;;;;9.49;79.56;97374.91;29395;207;64009;-70
2021/05/28 01:47:21;;;;;;;0.60;0.60;;;;;;;9.48;79.68;97373.28;29396;204;63009;-68
2021/05/28 01:47:52;;;;;;;0.60;0.60;;;;;;;9.48;79.78;97384.13;29396;279;63004;-68
2021/05/28 01:48:24;;;;;;;0.57;0.57;;;;;;;9.48;79.38;97378.69;29396;256;63009;-69
2021/05/28 01:48:55;;;;;;;0.60;0.60;;;;;;;9.48;79.69;97378.69;29396;197;63004;-68
2021/05/28 01:49:29;;;;;;;0.57;0.57;;;;;;;9.48;79.43;97381.41;29396;214;63009;-69
2021/05/28 01:50:01;;;;;;;0.60;0.60;;;;;;;9.48;79.66;97367.84;29396;227;63004;-68
2021/05/28 01:50:44;;;;;;;0.60;0.60;;;;;;;9.48;79.56;97378.69;29396;213;63008;-68
2021/05/28 01:51:17;;;;;;;0.60;0.60;;;;;;;9.47;79.75;97372.47;29396;226;63005;-70
2021/05/28 01:51:50;;;;;;;0.60;0.60;;;;;;;9.47;79.50;97377.06;29395;226;64014;-69
2021/05/28 01:52:26;;;;;;;0.60;0.60;;;;;;;9.48;79.83;97373.28;29396;217;63005;-68
2021/05/28 01:52:57;;;;;;;0.60;0.60;;;;;;;9.47;79.83;97371.66;29396;219;63009;-60
2021/05/28 01:53:28;;;;;;;0.60;0.60;;;;;;;9.47;79.64;97374.38;29396;240;63000;-67
2021/05/28 01:54:00;;;;;;;0.60;0.60;;;;;;;9.46;79.89;97373.56;29396;218;63009;-69
2021/05/28 01:54:34;;;;;;;0.60;0.60;;;;;;;9.46;80.29;97380.88;29396;197;63005;-69
2021/05/28 01:55:08;;;;;;;0.60;0.60;;;;;;;9.45;80.00;97373.81;29396;199;63017;-69
2021/05/28 01:55:39;;;;;;;0.60;0.60;;;;;;;9.45;79.83;97374.62;29396;218;63004;-69
2021/05/28 01:56:10;;;;;;;0.60;0.60;;;;;;;9.45;79.67;97373.81;29396;205;63009;-68
2021/05/28 01:56:44;;;;;;;0.60;0.60;;;;;;;9.43;79.72;97376.00;29396;215;63004;-68
2021/05/28 01:57:16;;;;;;;0.60;0.60;;;;;;;9.43;79.98;97370.56;29395;275;64013;-69
2021/05/28 01:57:48;;;;;;;0.60;0.60;;;;;;;9.43;80.16;97376.00;29395;215;64008;-67
2021/05/28 01:58:22;;;;;;;0.50;0.50;;;;;;;9.41;79.74;97385.19;29396;216;63008;-69
2021/05/28 01:58:54;;;;;;;0.60;0.60;;;;;;;9.41;80.10;97382.50;29396;207;63005;-70
2021/05/28 01:59:29;;;;;;;0.60;0.60;;;;;;;9.41;79.80;97378.97;29396;249;63009;-68
2021/05/28 02:00:00;;;;;;;0.60;0.60;;;;;;;9.39;80.80;97376.53;29396;353;63005;-70
2021/05/28 02:00:32;;;;;;;0.60;0.60;;;;;;;9.37;80.86;97384.13;29395;250;64013;-71
2021/05/28 02:01:04;;;;;;;0.60;0.60;;;;;;;9.37;81.02;97377.88;29396;197;63000;-70
2021/05/28 02:01:35;;;;;;;0.60;0.60;;;;;;;9.36;80.71;97376.25;29396;211;63009;-69
2021/05/28 02:02:06;;;;;;;0.50;0.50;;;;;;;9.35;80.50;97378.19;29396;213;63005;-71
2021/05/28 02:02:38;;;;;;;0.52;0.52;;;;;;;9.35;80.66;97380.91;29395;224;64013;-69
2021/05/28 02:03:10;;;;;;;0.60;0.60;;;;;;;9.34;80.66;97379.28;29396;281;63011;-71
2021/05/28 02:03:41;;;;;;;0.60;0.60;;;;;;;9.36;80.36;97381.69;29395;203;64013;-70
2021/05/28 02:04:12;;;;;;;0.60;0.60;;;;;;;9.36;80.09;97382.50;29396;202;63004;-69
2021/05/28 02:04:43;;;;;;;0.60;0.60;;;;;;;9.36;80.07;97385.19;29396;231;63009;-70
2021/05/28 02:05:14;;;;;;;0.60;0.60;;;;;;;9.35;80.09;97380.91;29396;207;63004;-71
2021/05/28 02:05:46;;;;;;;0.60;0.60;;;;;;;9.34;80.07;97378.47;29396;231;63008;-69
2021/05/28 02:06:17;;;;;;;0.60;0.60;;;;;;;9.34;80.50;97376.56;29396;203;63005;-68
2021/05/28 02:06:49;;;;;;;0.50;0.50;;;;;;;9.34;80.37;97375.75;29396;263;63009;-62
2021/05/28 02:07:20;;;;;;;0.60;0.60;;;;;;;9.33;80.46;97380.38;29396;207;63008;-68
2021/05/28 02:07:51;;;;;;;0.52;0.52;;;;;;;9.32;80.55;97378.75;29396;218;63009;-71
2021/05/28 02:08:23;;;;;;;0.50;0.50;;;;;;;9.32;80.60;97377.91;29396;209;63005;-67
2021/05/28 02:08:54;;;;;;;0.60;0.60;;;;;;;9.32;80.40;97381.44;29395;211;64013;-70
2021/05/28 02:09:26;;;;;;;0.60;0.60;;;;;;;9.32;80.45;97381.44;29396;268;63005;-68
2021/05/28 02:09:57;;;;;;;0.60;0.60;;;;;;;9.32;80.40;97384.16;29396;238;63009;-71
2021/05/28 02:10:29;;;;;;;0.50;0.50;;;;;;;9.31;80.70;97379.81;29396;319;63004;-69
2021/05/28 02:11:01;;;;;;;0.60;0.60;;;;;;;9.30;80.49;97378.19;29396;198;63013;-70
2021/05/28 02:11:33;;;;;;;0.60;0.60;;;;;;;9.30;80.53;97386.31;29396;207;63004;-70
2021/05/28 02:12:05;;;;;;;0.60;0.60;;;;;;;9.30;80.43;97383.62;29396;248;63009;-70
2021/05/28 02:12:36;;;;;;;0.60;0.60;;;;;;;9.31;80.70;97385.22;29396;247;63007;-71
2021/05/28 02:13:07;;;;;;;0.60;0.60;;;;;;;9.29;80.73;97376.56;29395;224;64013;-69
2021/05/28 02:13:38;;;;;;;0.60;0.60;;;;;;;9.29;80.87;97382.00;29396;265;63004;-69
2021/05/28 02:14:10;;;;;;;0.60;0.60;;;;;;;9.27;80.64;97378.75;29396;224;63009;-70
2021/05/28 02:14:41;;;;;;;0.60;0.60;;;;;;;9.29;80.63;97382.00;29396;206;63005;-69
2021/05/28 02:15:14;;;;;;;0.60;0.60;;;;;;;9.28;80.86;97385.78;29396;216;63009;-70
2021/05/28 02:15:46;;;;;;;0.60;0.60;;;;;;;9.27;80.98;97378.75;29396;212;63005;-69
2021/05/28 02:16:17;;;;;;;0.60;0.60;;;;;;;9.26;80.57;97371.69;29396;202;63025;-70
2021/05/28 02:16:49;;;;;;;0.60;0.60;;;;;;;9.27;80.91;97378.75;29397;256;63005;-69
2021/05/28 02:17:21;;;;;;;0.60;0.60;;;;;;;9.27;80.49;97378.75;29396;319;64009;-67
2021/05/28 02:17:53;;;;;;;0.60;0.60;;;;;;;9.28;80.48;97377.66;29397;202;63005;-68
2021/05/28 02:18:25;;;;;;;0.60;0.60;;;;;;;9.29;80.56;97379.28;29396;212;64013;-69
2021/05/28 02:18:57;;;;;;;0.60;0.60;;;;;;;9.29;80.44;97376.56;29397;252;63004;-68
2021/05/28 02:19:28;;;;;;;0.60;0.60;;;;;;;9.29;80.54;97379.28;29396;210;64013;-69
2021/05/28 02:19:59;;;;;;;1.02;1.02;;;;;;;9.29;80.31;97373.88;29397;193;63010;-71
2021/05/28 02:20:31;;;;;;;0.50;0.50;;;;;;;9.30;80.41;97377.38;29397;222;63008;-67
2021/05/28 02:21:02;;;;;;;0.60;0.60;;;;;;;9.30;80.48;97370.06;29397;259;63004;-69
2021/05/28 02:21:34;;;;;;;0.60;0.60;;;;;;;9.30;80.20;97372.78;29396;198;63009;-67
2021/05/28 02:22:11;;;;;;;0.60;0.60;;;;;;;9.31;80.49;97379.81;29397;220;63005;-68
2021/05/28 02:22:42;;;;;;;0.60;0.60;;;;;;;9.29;80.55;97373.88;29397;300;63009;-70
2021/05/28 02:23:13;;;;;;;0.50;0.50;;;;;;;9.29;80.59;97373.88;29397;273;63005;-67
2021/05/28 02:23:44;;;;;;;0.60;0.60;;;;;;;9.29;80.42;97371.16;29397;220;63009;-68
2021/05/28 02:24:16;;;;;;;0.60;0.60;;;;;;;9.31;80.43;97381.72;29396;280;64000;-67
2021/05/28 02:24:47;;;;;;;0.60;0.60;;;;;;;9.30;80.20;97375.50;29396;200;64013;-68
2021/05/28 02:25:19;;;;;;;0.60;0.60;;;;;;;9.30;80.43;97372.78;29397;197;63005;-68
2021/05/28 02:25:50;;;;;;;0.60;0.60;;;;;;;9.30;80.54;97372.78;29397;199;63009;-68
2021/05/28 02:26:22;;;;;;;0.60;0.60;;;;;;;9.31;80.41;97377.13;29397;231;63007;-70
2021/05/28 02:26:56;;;;;;;0.60;0.60;;;;;;;9.31;80.13;97379.81;29397;211;63009;-68
2021/05/28 02:27:27;;;;;;;1.23;1.23;;;;;;;9.31;80.15;97376.31;29397;269;63004;-70
2021/05/28 02:27:59;;;;;;;0.60;0.60;;;;;;;9.30;80.24;97372.78;29397;202;63008;-69
2021/05/28 02:28:30;;;;;;;0.60;0.60;;;;;;;9.30;80.32;97375.50;29396;258;64008;-68
2021/05/28 02:29:01;;;;;;;0.60;0.60;;;;;;;9.31;80.17;97371.69;29397;231;63009;-67
2021/05/28 02:29:33;;;;;;;0.60;0.60;;;;;;;9.31;80.13;97374.41;29396;214;63005;-68
2021/05/28 02:30:06;;;;;;;0.60;0.60;;;;;;;9.31;80.42;97377.13;29396;203;63009;-70
2021/05/28 02:30:37;;;;;;;0.60;0.60;;;;;;;9.31;80.15;97377.13;29395;258;64005;-68
2021/05/28 02:31:08;;;;;;;0.60;0.60;;;;;;;9.32;80.15;97386.84;29396;213;63009;-69
2021/05/28 02:31:40;;;;;;;0.60;0.60;;;;;;;9.33;80.28;97376.84;29396;214;63005;-67
2021/05/28 02:32:11;;;;;;;0.60;0.60;;;;;;;9.33;80.02;97376.84;29396;220;63009;-69
2021/05/28 02:32:43;;;;;;;0.60;0.60;;;;;;;9.33;80.06;97383.06;29396;316;63011;-69
2021/05/28 02:33:14;;;;;;;0.50;0.50;;;;;;;9.34;80.09;97379.28;29396;220;63009;-70